createdAt,value
2019-01-24T00:01:12.721Z,99525.59
2019-01-24T00:03:42.478Z,99520.80
2019-01-24T00:06:11.881Z,99527.67
2019-01-24T00:08:41.222Z,99522.52
2019-01-24T00:11:10.555Z,99525.70
2019-01-24T00:13:39.926Z,99536.20
2019-01-24T00:16:09.255Z,99541.55
2019-01-24T00:18:38.995Z,99539.48
2019-01-24T00:21:08.716Z,99539.31
2019-01-24T00:23:38.050Z,99543.30
2019-01-24T00:26:07.382Z,99543.30
2019-01-24T00:28:37.116Z,99543.06
2019-01-24T00:31:06.822Z,99541.22
2019-01-24T00:33:36.195Z,99540.38
2019-01-24T00:36:05.841Z,99538.17
2019-01-24T00:38:35.549Z,99538.78
2019-01-24T00:41:05.239Z,99543.58
2019-01-24T00:43:34.651Z,99535.73
2019-01-24T00:46:04.198Z,99538.55
2019-01-24T00:48:33.873Z,99540.02
2019-01-24T00:51:03.207Z,99537.88
2019-01-24T00:53:32.598Z,99545.89
2019-01-24T00:56:01.939Z,99541.77
2019-01-24T00:58:31.599Z,99547.09
2019-01-24T01:01:00.919Z,99550.84
2019-01-24T01:03:30.254Z,99544.72
2019-01-24T01:05:59.862Z,99554.25
2019-01-24T01:08:29.198Z,99563.05
2019-01-24T01:10:59.085Z,99559.09
2019-01-24T01:13:28.692Z,99569.77
2019-01-24T01:15:58.401Z,99575.28
2019-01-24T01:18:27.994Z,99571.61
2019-01-24T01:20:57.423Z,99571.28
2019-01-24T01:23:26.776Z,99567.91
2019-01-24T01:25:56.118Z,99570.67
2019-01-24T01:28:25.827Z,99576.02
2019-01-24T01:30:55.588Z,99573.71
2019-01-24T01:33:24.971Z,99573.02
2019-01-24T01:35:54.751Z,99572.02
2019-01-24T01:38:24.125Z,99577.54
2019-01-24T01:40:53.854Z,99576.36
2019-01-24T01:43:23.238Z,99572.91
2019-01-24T01:45:53.003Z,99571.72
2019-01-24T01:48:22.371Z,99578.05
2019-01-24T01:50:51.719Z,99578.91
2019-01-24T01:53:21.049Z,99577.94
2019-01-24T01:55:50.419Z,99581.67
2019-01-24T01:58:20.070Z,99589.16
2019-01-24T02:00:49.414Z,99578.62
2019-01-24T02:03:19.076Z,99578.84
2019-01-24T02:05:48.429Z,99580.38
2019-01-24T02:08:18.136Z,99579.86
2019-01-24T02:10:47.921Z,99580.83
2019-01-24T02:13:17.259Z,99579.40
2019-01-24T02:15:46.903Z,99568.17
2019-01-24T02:18:16.543Z,99580.60
2019-01-24T02:20:46.234Z,99580.70
2019-01-24T02:23:15.583Z,99584.27
2019-01-24T02:25:44.920Z,99583.91
2019-01-24T02:28:14.240Z,99590.36
2019-01-24T02:30:43.588Z,99586.47
2019-01-24T02:33:12.973Z,99585.84
2019-01-24T02:35:42.612Z,99595.25
2019-01-24T02:38:12.251Z,99590.73
2019-01-24T02:40:42.040Z,99587.36
2019-01-24T02:43:11.396Z,99589.79
2019-01-24T02:45:40.767Z,99589.66
2019-01-24T02:48:10.167Z,99588.14
2019-01-24T02:50:39.520Z,99588.66
2019-01-24T02:53:08.879Z,99590.73
2019-01-24T02:55:38.562Z,99594.75
2019-01-24T02:58:07.896Z,99591.98
2019-01-24T03:00:37.244Z,99596.20
2019-01-24T03:03:06.568Z,99588.94
2019-01-24T03:05:36.308Z,99586.54
2019-01-24T03:08:05.632Z,99592.75
2019-01-24T03:10:34.979Z,99597.72
2019-01-24T03:13:04.304Z,99593.37
2019-01-24T03:15:33.694Z,99595.58
2019-01-24T03:18:03.056Z,99599.23
2019-01-24T03:20:32.394Z,99602.23
2019-01-24T03:23:02.076Z,99605.81
2019-01-24T03:25:31.418Z,99614.45
2019-01-24T03:28:00.742Z,99620.42
2019-01-24T03:30:30.097Z,99619.35
2019-01-24T03:32:59.434Z,99621.27
2019-01-24T03:35:29.098Z,99619.12
2019-01-24T03:37:58.820Z,99626.13
2019-01-24T03:40:28.516Z,99633.92
2019-01-24T03:42:57.852Z,99633.76
2019-01-24T03:45:27.201Z,99632.17
2019-01-24T03:47:56.655Z,99637.14
2019-01-24T03:50:26.074Z,99634.16
2019-01-24T03:52:55.434Z,99634.55
2019-01-24T03:55:24.795Z,99629.91
2019-01-24T03:57:54.211Z,99631.95
2019-01-24T04:00:25.601Z,99630.14
2019-01-24T04:02:55.031Z,99636.30
2019-01-24T04:05:24.366Z,99629.73
2019-01-24T04:07:53.981Z,99636.30
2019-01-24T04:10:23.683Z,99638.90
2019-01-24T04:12:53.417Z,99646.39
2019-01-24T04:15:25.965Z,99653.80
2019-01-24T04:17:55.290Z,99656.84
2019-01-24T04:20:24.604Z,99659.38
2019-01-24T04:22:53.978Z,99663.95
2019-01-24T04:25:23.321Z,99657.33
2019-01-24T04:27:52.657Z,99664.80
2019-01-24T04:30:23.025Z,99670.51
2019-01-24T04:32:52.691Z,99669.83
2019-01-24T04:35:22.402Z,99671.91
2019-01-24T04:37:51.724Z,99675.93
2019-01-24T04:40:21.469Z,99678.91
2019-01-24T04:42:51.123Z,99671.29
2019-01-24T04:45:20.486Z,99678.52
2019-01-24T04:47:49.801Z,99675.93
2019-01-24T04:50:19.525Z,99676.87
2019-01-24T04:52:49.239Z,99683.49
2019-01-24T04:55:19.903Z,99675.47
2019-01-24T04:57:49.430Z,99677.72
2019-01-24T05:00:25.659Z,99681.73
2019-01-24T05:02:55.000Z,99686.70
2019-01-24T05:05:27.861Z,99686.80
2019-01-24T05:07:55.814Z,99684.34
2019-01-24T05:10:25.124Z,99691.28
2019-01-24T05:12:54.848Z,99691.83
2019-01-24T05:15:24.552Z,99690.53
2019-01-24T05:17:54.163Z,99690.77
2019-01-24T05:20:23.554Z,99684.73
2019-01-24T05:22:52.888Z,99685.80
2019-01-24T05:25:22.318Z,99694.33
2019-01-24T05:27:51.767Z,99701.28
2019-01-24T05:30:24.220Z,99695.56
2019-01-24T05:32:55.269Z,99694.16
2019-01-24T05:35:24.864Z,99688.97
2019-01-24T05:37:54.203Z,99693.59
2019-01-24T05:40:23.590Z,99694.69
2019-01-24T05:42:53.235Z,99689.66
2019-01-24T05:45:22.584Z,99694.57
2019-01-24T05:47:52.251Z,99699.31
2019-01-24T05:50:21.625Z,99709.62
2019-01-24T05:52:50.967Z,99708.91
2019-01-24T05:55:20.303Z,99713.73
2019-01-24T05:57:49.655Z,99715.55
2019-01-24T06:00:22.359Z,99713.96
2019-01-24T06:02:53.198Z,99727.39
2019-01-24T06:05:22.560Z,99729.16
2019-01-24T06:07:51.924Z,99677.22
2019-01-24T06:10:21.502Z,99736.91
2019-01-24T06:12:51.125Z,99738.38
2019-01-24T06:15:20.732Z,99738.77
2019-01-24T06:17:50.323Z,99676.48
2019-01-24T06:20:19.700Z,99742.27
2019-01-24T06:22:49.083Z,99749.28
2019-01-24T06:25:18.461Z,99751.83
2019-01-24T06:27:47.784Z,99751.70
2019-01-24T06:30:23.053Z,99744.81
2019-01-24T06:32:52.679Z,99749.63
2019-01-24T06:35:22.030Z,99754.66
2019-01-24T06:37:51.357Z,99701.83
2019-01-24T06:40:20.980Z,99760.31
2019-01-24T06:42:50.324Z,99763.52
2019-01-24T06:45:22.511Z,99769.62
2019-01-24T06:47:51.879Z,99768.38
2019-01-24T06:50:21.562Z,99777.86
2019-01-24T06:52:51.134Z,99775.89
2019-01-24T06:55:24.769Z,99774.08
2019-01-24T06:57:54.270Z,99764.45
2019-01-24T07:00:23.938Z,99770.20
2019-01-24T07:02:53.279Z,99778.77
2019-01-24T07:05:22.622Z,99781.77
2019-01-24T07:07:51.985Z,99780.24
2019-01-24T07:10:23.839Z,99780.63
2019-01-24T07:12:53.483Z,99791.63
2019-01-24T07:15:23.915Z,99796.13
2019-01-24T07:17:53.998Z,99799.27
2019-01-24T07:20:23.351Z,99792.84
2019-01-24T07:22:53.256Z,99795.98
2019-01-24T07:25:26.055Z,99800.18
2019-01-24T07:27:55.374Z,99802.61
2019-01-24T07:30:25.000Z,99806.39
2019-01-24T07:32:54.619Z,99807.42
2019-01-24T07:35:24.337Z,99795.48
2019-01-24T07:37:54.038Z,99801.55
2019-01-24T07:40:23.781Z,99815.92
2019-01-24T07:42:53.109Z,99809.19
2019-01-24T07:45:50.944Z,99818.84
2019-01-24T07:48:20.254Z,99821.34
2019-01-24T07:50:49.915Z,99817.78
2019-01-24T07:53:19.627Z,99811.37
2019-01-24T07:55:49.226Z,99816.58
2019-01-24T07:58:18.560Z,99824.27
2019-01-24T08:00:48.329Z,99825.33
2019-01-24T08:03:17.764Z,99822.78
2019-01-24T08:05:47.140Z,99833.23
2019-01-24T08:08:16.495Z,99836.44
2019-01-24T08:10:46.231Z,99801.63
2019-01-24T08:13:15.632Z,99834.74
2019-01-24T08:15:45.783Z,99839.86
2019-01-24T08:18:15.229Z,99838.05
2019-01-24T08:20:44.634Z,99830.61
2019-01-24T08:23:13.981Z,99833.00
2019-01-24T08:25:44.899Z,99836.91
2019-01-24T08:28:14.659Z,99834.66
2019-01-24T08:30:44.447Z,99835.19
2019-01-24T08:33:14.107Z,99840.84
2019-01-24T08:35:43.742Z,99846.08
2019-01-24T08:38:13.096Z,99845.39
2019-01-24T08:40:42.443Z,99852.42
2019-01-24T08:43:11.791Z,99847.16
2019-01-24T08:45:41.150Z,99847.03
2019-01-24T08:48:10.483Z,99847.07
2019-01-24T08:50:39.840Z,99841.98
2019-01-24T08:53:09.575Z,99843.47
2019-01-24T08:55:40.088Z,99844.47
2019-01-24T08:58:09.847Z,99851.02
2019-01-24T09:00:39.615Z,99844.30
2019-01-24T09:03:09.332Z,99847.67
2019-01-24T09:05:39.048Z,99850.14
2019-01-24T09:08:08.757Z,99851.13
2019-01-24T09:10:38.977Z,99842.20
2019-01-24T09:13:08.310Z,99849.50
2019-01-24T09:15:37.694Z,99851.84
2019-01-24T09:18:07.397Z,99852.52
2019-01-24T09:20:37.068Z,99858.50
2019-01-24T09:23:06.572Z,99864.78
2019-01-24T09:28:03.149Z,99872.01
2019-01-24T09:30:32.846Z,99876.69
2019-01-24T09:33:02.200Z,99876.61
2019-01-24T09:35:31.518Z,99874.81
2019-01-24T09:38:01.158Z,99878.79
2019-01-24T09:40:30.865Z,99877.47
2019-01-24T09:43:00.187Z,99876.23
2019-01-24T09:45:30.418Z,99886.19
2019-01-24T09:48:00.029Z,99890.66
2019-01-24T09:50:30.119Z,99890.56
2019-01-24T09:52:59.816Z,99891.76
2019-01-24T09:55:29.546Z,99890.41
2019-01-24T09:57:59.236Z,99889.95
2019-01-24T10:00:34.416Z,99890.71
2019-01-24T10:03:04.379Z,99892.01
2019-01-24T10:05:33.727Z,99893.77
2019-01-24T10:08:03.386Z,99890.92
2019-01-24T10:10:32.710Z,99890.97
2019-01-24T10:13:02.090Z,99891.50
2019-01-24T10:15:31.806Z,99891.39
2019-01-24T10:18:01.139Z,99896.38
2019-01-24T10:20:30.800Z,99890.61
2019-01-24T10:23:00.158Z,99880.23
2019-01-24T10:25:35.480Z,99883.51
2019-01-24T10:28:05.144Z,99883.52
2019-01-24T10:30:34.850Z,99875.50
2019-01-24T10:33:04.185Z,99881.91
2019-01-24T10:35:33.598Z,99879.87
2019-01-24T10:38:03.311Z,99883.97
2019-01-24T10:40:33.897Z,99881.45
2019-01-24T10:43:03.255Z,99886.22
2019-01-24T10:45:32.637Z,99888.37
2019-01-24T10:48:02.302Z,99892.18
2019-01-24T10:50:32.119Z,99893.58
2019-01-24T10:53:01.456Z,99896.38
2019-01-24T10:55:31.129Z,99892.94
2019-01-24T10:58:01.528Z,99892.84
2019-01-24T11:00:39.152Z,99895.54
2019-01-24T11:03:11.613Z,99894.13
2019-01-24T11:05:41.259Z,99892.19
2019-01-24T11:08:10.801Z,99894.89
2019-01-24T11:10:40.440Z,99896.73
2019-01-24T11:13:10.149Z,99891.02
2019-01-24T11:15:39.866Z,99890.66
2019-01-24T11:18:09.190Z,99889.77
2019-01-24T11:20:38.534Z,99888.75
2019-01-24T11:23:07.940Z,99890.94
2019-01-24T11:25:37.588Z,99883.98
2019-01-24T11:28:06.924Z,99876.97
2019-01-24T11:30:36.581Z,99882.38
2019-01-24T11:33:06.489Z,99881.18
2019-01-24T11:35:42.181Z,99878.65
2019-01-24T11:38:12.162Z,99876.69
2019-01-24T11:40:41.889Z,99876.29
2019-01-24T11:43:11.676Z,99875.06
2019-01-24T11:45:41.948Z,99878.70
2019-01-24T11:48:11.863Z,99870.85
2019-01-24T11:50:41.399Z,99864.20
2019-01-24T11:53:11.052Z,99866.95
2019-01-24T11:55:40.736Z,99867.16
2019-01-24T11:58:10.477Z,99863.98
2019-01-24T12:00:42.172Z,99861.87
2019-01-24T12:03:11.922Z,99871.76
2019-01-24T12:05:41.524Z,99866.83
2019-01-24T12:08:11.111Z,99869.15
2019-01-24T12:10:40.849Z,99867.64
2019-01-24T12:13:10.544Z,99867.38
2019-01-24T12:15:39.897Z,99863.91
2019-01-24T12:18:09.222Z,99872.23
2019-01-24T12:20:38.618Z,99870.92
2019-01-24T12:23:07.965Z,99870.74
2019-01-24T12:25:37.639Z,99874.35
2019-01-24T12:28:07.014Z,99870.81
2019-01-24T12:30:37.719Z,99870.05
2019-01-24T12:33:07.090Z,99866.05
2019-01-24T12:35:36.809Z,99879.91
2019-01-24T12:38:06.197Z,99881.80
2019-01-24T12:40:35.566Z,99877.16
2019-01-24T12:43:05.000Z,99875.31
2019-01-24T12:45:38.294Z,99874.73
2019-01-24T12:48:08.097Z,99880.25
2019-01-24T12:50:37.806Z,99882.02
2019-01-24T12:53:07.833Z,99883.14
2019-01-24T12:55:37.420Z,99882.56
2019-01-24T12:58:06.759Z,99887.52
2019-01-24T13:00:37.750Z,99886.48
2019-01-24T13:03:07.080Z,99886.48
2019-01-24T13:05:36.469Z,99883.68
2019-01-24T13:08:06.188Z,99888.90
2019-01-24T13:10:35.876Z,99882.19
2019-01-24T13:13:05.441Z,99874.80
2019-01-24T13:15:34.847Z,99878.45
2019-01-24T13:18:04.864Z,99872.94
2019-01-24T13:20:34.231Z,99885.94
2019-01-24T13:23:03.837Z,99892.47
2019-01-24T13:25:34.660Z,99893.84
2019-01-24T13:28:04.545Z,99887.25
2019-01-24T13:30:35.260Z,99892.63
2019-01-24T13:33:05.075Z,99890.09
2019-01-24T13:35:34.915Z,99894.50
2019-01-24T13:38:04.429Z,99894.31
2019-01-24T13:40:33.773Z,99898.34
2019-01-24T13:43:03.413Z,99897.11
2019-01-24T13:45:35.675Z,99896.73
2019-01-24T13:48:05.299Z,99905.13
2019-01-24T13:50:34.916Z,99903.28
2019-01-24T13:53:04.262Z,99904.97
2019-01-24T13:55:33.627Z,99902.63
2019-01-24T13:58:04.046Z,99904.59
2019-01-24T14:00:36.110Z,99896.65
2019-01-24T14:03:15.460Z,99895.34
2019-01-24T14:05:45.142Z,99897.69
2019-01-24T14:08:14.649Z,99899.72
2019-01-24T14:10:43.973Z,99898.80
2019-01-24T14:13:13.757Z,99891.34
2019-01-24T14:15:43.499Z,99888.19
2019-01-24T14:18:12.846Z,99897.48
2019-01-24T14:20:42.503Z,99894.91
2019-01-24T14:23:11.815Z,99898.62
2019-01-24T14:25:41.144Z,99898.82
2019-01-24T14:28:10.779Z,99900.29
2019-01-24T14:30:40.476Z,99898.98
2019-01-24T14:33:09.805Z,99900.38
2019-01-24T14:35:39.134Z,99901.95
2019-01-24T14:38:09.512Z,99905.67
2019-01-24T14:40:39.216Z,99904.56
2019-01-24T14:43:08.567Z,99913.70
2019-01-24T14:45:38.648Z,99915.77
2019-01-24T14:48:08.570Z,99911.97
2019-01-24T14:50:38.523Z,99914.73
2019-01-24T14:53:08.208Z,99921.52
2019-01-24T14:55:37.577Z,99923.22
2019-01-24T14:58:07.173Z,99920.34
2019-01-24T15:00:44.449Z,99922.68
2019-01-24T15:03:13.774Z,99923.48
2019-01-24T15:05:43.118Z,99923.59
2019-01-24T15:08:12.999Z,99917.59
2019-01-24T15:10:42.457Z,99930.25
2019-01-24T15:13:11.839Z,99933.20
2019-01-24T15:15:41.448Z,99928.61
2019-01-24T15:18:11.059Z,99935.53
2019-01-24T15:20:40.745Z,99932.44
2019-01-24T15:23:10.420Z,99940.47
2019-01-24T15:25:39.774Z,99940.98
2019-01-24T15:28:09.507Z,99942.73
2019-01-24T15:30:39.141Z,99946.96
2019-01-24T15:33:08.575Z,99950.59
2019-01-24T15:35:37.912Z,99948.37
2019-01-24T15:38:07.256Z,99947.01
2019-01-24T15:40:37.008Z,99954.30
2019-01-24T15:43:06.601Z,99950.39
2019-01-24T15:45:36.217Z,99953.13
2019-01-24T15:48:06.576Z,99959.80
2019-01-24T15:50:36.063Z,99968.84
2019-01-24T15:53:05.770Z,99974.66
2019-01-24T15:55:35.144Z,99973.14
2019-01-24T15:58:04.923Z,99976.70
2019-01-24T16:00:35.307Z,99982.59
2019-01-24T16:03:06.196Z,99980.90
2019-01-24T16:05:35.872Z,99983.19
2019-01-24T16:08:06.000Z,99985.08
2019-01-24T16:10:35.796Z,99982.47
2019-01-24T16:13:05.491Z,99991.91
2019-01-24T16:15:39.300Z,99984.19
2019-01-24T16:18:09.585Z,99998.12
2019-01-24T16:20:39.450Z,99994.56
2019-01-24T16:23:08.798Z,99996.84
2019-01-24T16:25:53.480Z,99990.53
2019-01-24T16:28:24.859Z,99998.17
2019-01-24T16:30:54.426Z,99996.77
2019-01-24T16:33:23.782Z,99996.80
2019-01-24T16:35:53.493Z,100006.21
2019-01-24T16:38:25.610Z,100008.16
2019-01-24T16:40:55.287Z,100013.85
2019-01-24T16:43:24.752Z,100017.13
2019-01-24T16:45:54.565Z,100016.16
2019-01-24T16:48:23.927Z,100019.87
2019-01-24T16:50:53.838Z,100029.20
2019-01-24T16:53:35.307Z,100024.06
2019-01-24T16:56:30.828Z,100016.75
2019-01-24T16:59:10.193Z,100021.55
2019-01-24T17:01:39.689Z,100025.44
2019-01-24T17:04:09.055Z,100019.89
2019-01-24T17:06:38.449Z,100024.16
2019-01-24T17:09:09.711Z,100027.48
2019-01-24T17:11:39.234Z,100031.58
2019-01-24T17:14:08.594Z,100033.52
2019-01-24T17:16:38.303Z,100030.57
2019-01-24T17:19:08.695Z,100033.00
2019-01-24T17:21:38.214Z,100040.47
2019-01-24T17:24:07.588Z,100040.83
2019-01-24T17:26:37.016Z,100045.09
2019-01-24T17:29:06.684Z,100038.61
2019-01-24T17:31:36.477Z,100042.03
2019-01-24T17:34:09.116Z,100040.27
2019-01-24T17:36:38.575Z,100033.57
2019-01-24T17:39:09.685Z,100040.30
2019-01-24T17:41:39.050Z,100045.41
2019-01-24T17:44:08.804Z,100045.38
2019-01-24T17:46:38.115Z,100042.70
2019-01-24T17:49:07.750Z,100048.15
2019-01-24T17:51:37.405Z,100053.08
2019-01-24T17:54:06.757Z,100055.17
2019-01-24T17:56:36.336Z,100059.85
2019-01-24T17:59:05.856Z,100068.80
2019-01-24T18:01:35.515Z,100063.38
2019-01-24T18:04:05.151Z,100068.25
2019-01-24T18:06:34.511Z,100072.16
2019-01-24T18:09:05.506Z,100076.05
2019-01-24T18:11:35.082Z,100071.20
2019-01-24T18:14:04.986Z,100069.44
2019-01-24T18:16:34.361Z,100074.94
2019-01-24T18:19:04.113Z,100070.81
2019-01-24T18:21:33.462Z,100085.15
2019-01-24T18:24:03.089Z,100081.55
2019-01-24T18:26:32.474Z,100081.45
2019-01-24T18:29:02.058Z,100086.06
2019-01-24T18:31:31.685Z,100083.45
2019-01-24T18:34:01.328Z,100093.72
2019-01-24T18:36:30.911Z,100092.58
2019-01-24T18:39:00.346Z,100089.08
2019-01-24T18:41:29.697Z,100094.56
2019-01-24T18:43:59.296Z,100091.77
2019-01-24T18:46:28.732Z,100090.75
2019-01-24T18:48:58.070Z,100097.70
2019-01-24T18:51:27.511Z,100092.31
2019-01-24T18:53:57.187Z,100091.23
2019-01-24T18:56:26.786Z,100097.45
2019-01-24T18:58:56.471Z,100103.47
2019-01-24T19:01:25.856Z,100107.59
2019-01-24T19:03:55.212Z,100106.16
2019-01-24T19:06:24.622Z,100105.11
2019-01-24T19:08:54.304Z,100106.00
2019-01-24T19:11:23.920Z,100101.66
2019-01-24T19:13:53.278Z,100104.65
2019-01-24T19:16:23.025Z,100110.28
2019-01-24T19:18:52.333Z,100032.80
2019-01-24T19:21:21.998Z,100111.41
2019-01-24T19:23:52.019Z,100107.91
2019-01-24T19:26:21.460Z,100111.42
2019-01-24T19:28:50.810Z,100110.05
2019-01-24T19:31:20.204Z,100118.10
2019-01-24T19:33:49.901Z,100116.02
2019-01-24T19:36:20.777Z,100117.36
2019-01-24T19:38:53.209Z,100111.87
2019-01-24T19:41:21.860Z,100115.30
2019-01-24T19:43:51.177Z,100121.43
2019-01-24T19:46:20.540Z,100124.30
2019-01-24T19:48:50.187Z,100126.60
2019-01-24T19:51:19.789Z,100126.04
2019-01-24T19:53:49.167Z,100132.13
2019-01-24T19:56:18.867Z,100137.95
2019-01-24T19:58:48.475Z,100133.75
2019-01-24T20:01:18.122Z,100139.57
2019-01-24T20:03:47.493Z,100141.41
2019-01-24T20:06:17.100Z,100137.83
2019-01-24T20:08:46.511Z,100137.91
2019-01-24T20:11:15.867Z,100144.89
2019-01-24T20:13:45.343Z,100144.25
2019-01-24T20:16:14.798Z,100147.88
2019-01-24T20:18:44.395Z,100149.46
2019-01-24T20:21:14.021Z,100153.98
2019-01-24T20:23:43.425Z,100150.91
2019-01-24T20:26:13.014Z,100146.38
2019-01-24T20:28:42.618Z,100151.92
2019-01-24T20:31:12.248Z,100154.46
2019-01-24T20:33:41.603Z,100151.59
2019-01-24T20:36:11.234Z,100152.44
2019-01-24T20:38:40.842Z,100151.42
2019-01-24T20:41:10.512Z,100157.03
2019-01-24T20:43:40.139Z,100148.33
2019-01-24T20:46:09.492Z,100148.20
2019-01-24T20:48:38.836Z,100145.92
2019-01-24T20:51:08.537Z,100150.91
2019-01-24T20:53:37.840Z,100144.90
2019-01-24T20:56:07.209Z,100153.59
2019-01-24T20:58:36.882Z,100157.83
2019-01-24T21:01:06.518Z,100160.06
2019-01-24T21:03:36.127Z,100160.45
2019-01-24T21:06:05.914Z,100159.45
2019-01-24T21:08:35.619Z,100160.92
2019-01-24T21:11:04.990Z,100162.69
2019-01-24T21:13:34.662Z,100172.53
2019-01-24T21:16:04.282Z,100172.98
2019-01-24T21:18:33.668Z,100171.11
2019-01-24T21:21:03.320Z,100167.95
2019-01-24T21:23:32.928Z,100172.91
2019-01-24T21:26:02.559Z,100173.98
2019-01-24T21:28:34.993Z,100183.11
2019-01-24T21:31:04.582Z,100176.97
2019-01-24T21:33:34.217Z,100187.77
2019-01-24T21:36:03.833Z,100180.61
2019-01-24T21:38:33.529Z,100179.20
2019-01-24T21:41:02.861Z,100172.06
2019-01-24T21:43:32.283Z,100180.00
2019-01-24T21:46:01.895Z,100178.75
2019-01-24T21:48:32.628Z,100179.14
2019-01-24T21:51:02.027Z,100174.77
2019-01-24T21:53:31.627Z,100179.61
2019-01-24T21:56:01.239Z,100177.11
2019-01-24T21:58:30.839Z,100181.59
2019-01-24T22:01:00.447Z,100180.94
2019-01-24T22:03:30.051Z,100184.53
2019-01-24T22:05:59.688Z,100191.55
2019-01-24T22:08:29.313Z,100193.31
2019-01-24T22:10:58.988Z,100185.38
2019-01-24T22:13:28.600Z,100182.63
2019-01-24T22:15:57.957Z,100181.55
2019-01-24T22:18:27.537Z,100184.80
2019-01-24T22:20:57.136Z,100181.80
2019-01-24T22:23:26.787Z,100185.25
2019-01-24T22:25:56.424Z,100186.23
2019-01-24T22:28:26.888Z,100191.09
2019-01-24T22:30:57.797Z,100192.76
2019-01-24T22:33:27.413Z,100195.08
2019-01-24T22:35:56.790Z,100191.95
2019-01-24T22:38:26.160Z,100193.15
2019-01-24T22:40:55.571Z,100193.70
2019-01-24T22:43:25.167Z,100192.30
2019-01-24T22:45:54.497Z,100189.25
2019-01-24T22:48:24.116Z,100193.09
2019-01-24T22:50:53.732Z,100191.79
2019-01-24T22:53:23.338Z,100188.49
2019-01-24T22:55:52.917Z,100184.94
2019-01-24T22:58:22.552Z,100185.95
2019-01-24T23:01:05.645Z,100188.34
2019-01-24T23:03:39.948Z,100189.91
2019-01-24T23:06:09.502Z,100186.84
2019-01-24T23:08:38.861Z,100189.15
2019-01-24T23:11:08.204Z,100190.54
2019-01-24T23:13:37.576Z,100191.73
2019-01-24T23:16:07.239Z,100185.97
2019-01-24T23:18:36.916Z,100182.29
2019-01-24T23:21:06.306Z,100178.36
2019-01-24T23:23:35.647Z,100179.06
2019-01-24T23:26:05.076Z,100178.08
2019-01-24T23:28:34.703Z,100179.45
2019-01-24T23:31:04.376Z,100178.75
2019-01-24T23:33:33.747Z,100178.70
2019-01-24T23:36:03.090Z,100184.81
2019-01-24T23:38:32.444Z,100179.67
2019-01-24T23:41:01.783Z,100179.37
2019-01-24T23:43:31.409Z,100115.61
2019-01-24T23:46:00.996Z,100180.80
2019-01-24T23:48:30.601Z,100178.06
2019-01-24T23:51:00.180Z,100177.06
2019-01-24T23:53:29.528Z,100177.30
2019-01-24T23:55:59.201Z,100172.25
2019-01-24T23:58:28.561Z,100175.53
